sensor_id;sensor_type;location;lat;lon;timestamp;temperature;humidity
46309;DHT22;32037;50.820;6.494;2023-08-20T15:05:50;25.60;99.90
46309;DHT22;32037;50.820;6.494;2023-08-20T15:08:19;25.70;94.30
46309;DHT22;32037;50.820;6.494;2023-08-20T15:10:56;25.70;94.20
46309;DHT22;32037;50.820;6.494;2023-08-20T15:13:28;25.70;94.30
46309;DHT22;32037;50.820;6.494;2023-08-20T15:15:56;25.70;94.40
46309;DHT22;32037;50.820;6.494;2023-08-20T15:18:25;25.70;94.60
46309;DHT22;32037;50.820;6.494;2023-08-20T15:20:54;25.70;94.70
46309;DHT22;32037;50.820;6.494;2023-08-20T15:23:23;25.70;94.80
46309;DHT22;32037;50.820;6.494;2023-08-20T15:25:53;25.70;94.90
46309;DHT22;32037;50.820;6.494;2023-08-20T15:28:22;25.70;94.90
46309;DHT22;32037;50.820;6.494;2023-08-20T15:30:53;25.70;95.00
46309;DHT22;32037;50.820;6.494;2023-08-20T15:33:22;25.70;95.10
46309;DHT22;32037;50.820;6.494;2023-08-20T15:35:50;25.70;95.10
46309;DHT22;32037;50.820;6.494;2023-08-20T15:38:19;25.70;95.10
46309;DHT22;32037;50.820;6.494;2023-08-20T15:40:47;25.70;95.10
46309;DHT22;32037;50.820;6.494;2023-08-20T15:43:15;25.70;95.20
46309;DHT22;32037;50.820;6.494;2023-08-20T15:45:44;25.70;95.20
46309;DHT22;32037;50.820;6.494;2023-08-20T15:48:13;25.70;95.30
46309;DHT22;32037;50.820;6.494;2023-08-20T15:50:42;25.70;95.40
46309;DHT22;32037;50.820;6.494;2023-08-20T15:53:10;25.70;95.40
46309;DHT22;32037;50.820;6.494;2023-08-20T15:55:39;25.70;95.50
46309;DHT22;32037;50.820;6.494;2023-08-20T15:58:07;25.70;95.60
46309;DHT22;32037;50.820;6.494;2023-08-20T16:00:35;25.70;95.60
46309;DHT22;32037;50.820;6.494;2023-08-20T16:03:05;25.70;95.60
46309;DHT22;32037;50.820;6.494;2023-08-20T16:05:37;25.70;95.60
46309;DHT22;32037;50.820;6.494;2023-08-20T16:08:06;25.70;95.60
46309;DHT22;32037;50.820;6.494;2023-08-20T16:10:34;25.70;95.60
46309;DHT22;32037;50.820;6.494;2023-08-20T16:13:04;25.70;95.70
46309;DHT22;32037;50.820;6.494;2023-08-20T16:15:32;25.70;95.90
46309;DHT22;32037;50.820;6.494;2023-08-20T16:18:01;25.70;96.00
46309;DHT22;32037;50.820;6.494;2023-08-20T16:20:31;25.70;96.00
46309;DHT22;32037;50.820;6.494;2023-08-20T16:23:01;25.70;96.20
46309;DHT22;32037;50.820;6.494;2023-08-20T16:25:30;25.80;96.30
46309;DHT22;32037;50.820;6.494;2023-08-20T16:28:02;25.70;96.40
46309;DHT22;32037;50.820;6.494;2023-08-20T16:30:32;25.80;96.50
46309;DHT22;32037;50.820;6.494;2023-08-20T16:33:00;25.80;96.70
46309;DHT22;32037;50.820;6.494;2023-08-20T16:35:29;25.80;96.90
46309;DHT22;32037;50.820;6.494;2023-08-20T16:37:57;25.80;97.10
46309;DHT22;32037;50.820;6.494;2023-08-20T16:40:27;25.80;97.30
46309;DHT22;32037;50.820;6.494;2023-08-20T16:42:58;25.80;97.80
46309;DHT22;32037;50.820;6.494;2023-08-20T17:10:15;25.80;97.10
46309;DHT22;32037;50.820;6.494;2023-08-20T17:12:44;25.90;97.30
46309;DHT22;32037;50.820;6.494;2023-08-20T17:15:15;25.90;97.20
46309;DHT22;32037;50.820;6.494;2023-08-20T17:17:44;25.90;97.10
46309;DHT22;32037;50.820;6.494;2023-08-20T17:20:12;25.90;97.10
46309;DHT22;32037;50.820;6.494;2023-08-20T17:22:41;25.90;97.00
46309;DHT22;32037;50.820;6.494;2023-08-20T17:25:09;26.00;96.90
46309;DHT22;32037;50.820;6.494;2023-08-20T17:27:38;25.90;96.90
46309;DHT22;32037;50.820;6.494;2023-08-20T17:30:07;26.00;97.10
46309;DHT22;32037;50.820;6.494;2023-08-20T17:32:40;26.00;97.00
46309;DHT22;32037;50.820;6.494;2023-08-20T17:35:09;25.90;97.00
46309;DHT22;32037;50.820;6.494;2023-08-20T17:37:37;26.00;97.10
46309;DHT22;32037;50.820;6.494;2023-08-20T17:40:07;26.00;97.20
46309;DHT22;32037;50.820;6.494;2023-08-20T17:42:37;26.00;97.30
46309;DHT22;32037;50.820;6.494;2023-08-20T17:45:06;26.00;97.40
46309;DHT22;32037;50.820;6.494;2023-08-20T17:47:35;26.00;97.50
46309;DHT22;32037;50.820;6.494;2023-08-20T17:50:06;26.00;97.60
46309;DHT22;32037;50.820;6.494;2023-08-20T17:52:35;26.00;97.70
46309;DHT22;32037;50.820;6.494;2023-08-20T17:55:04;26.00;97.70
46309;DHT22;32037;50.820;6.494;2023-08-20T17:57:34;26.00;97.80
46309;DHT22;32037;50.820;6.494;2023-08-20T18:00:03;26.00;97.80
46309;DHT22;32037;50.820;6.494;2023-08-20T18:02:38;26.00;97.80
46309;DHT22;32037;50.820;6.494;2023-08-20T18:05:08;26.00;97.90
46309;DHT22;32037;50.820;6.494;2023-08-20T18:07:38;26.00;97.90
